createdAt,value
2018-05-07T00:01:22.833Z,102119.48
2018-05-07T00:03:50.383Z,102119.13
2018-05-07T00:06:17.929Z,102116.66
2018-05-07T00:08:45.498Z,102120.84
2018-05-07T00:11:13.016Z,102118.02
2018-05-07T00:13:40.662Z,102115.06
2018-05-07T00:16:08.173Z,102112.52
2018-05-07T00:18:35.695Z,102121.70
2018-05-07T00:21:03.221Z,102106.98
2018-05-07T00:23:30.749Z,102107.41
2018-05-07T00:25:58.273Z,102104.16
2018-05-07T00:28:25.825Z,102104.52
2018-05-07T00:30:53.441Z,102101.34
2018-05-07T00:33:21.091Z,102096.92
2018-05-07T00:35:48.618Z,102099.19
2018-05-07T00:38:16.138Z,102098.27
2018-05-07T00:40:43.664Z,102104.30
2018-05-07T00:43:11.223Z,102099.21
2018-05-07T00:45:38.740Z,102102.83
2018-05-07T00:48:06.270Z,102102.98
2018-05-07T00:50:33.787Z,102104.37
2018-05-07T00:53:01.297Z,102108.10
2018-05-07T00:55:28.823Z,102113.27
2018-05-07T00:57:56.350Z,102110.86
2018-05-07T01:00:23.902Z,102115.61
2018-05-07T01:02:51.504Z,102123.17
2018-05-07T01:05:19.022Z,102115.80
2018-05-07T01:07:46.626Z,102114.84
2018-05-07T01:10:14.148Z,102119.41
2018-05-07T01:12:41.724Z,102123.17
2018-05-07T01:15:09.228Z,102119.23
2018-05-07T01:17:36.744Z,102114.92
2018-05-07T01:20:04.257Z,102111.81
2018-05-07T01:22:31.808Z,102112.51
2018-05-07T01:24:59.334Z,102110.02
2018-05-07T01:27:26.856Z,102109.77
2018-05-07T01:29:54.380Z,102109.36
2018-05-07T01:32:21.901Z,102111.33
2018-05-07T01:34:49.415Z,102110.08
2018-05-07T01:37:16.921Z,102110.22
2018-05-07T01:39:44.451Z,102108.72
2018-05-07T01:42:11.986Z,102112.83
2018-05-07T01:44:39.494Z,102114.28
2018-05-07T01:47:07.031Z,102116.75
2018-05-07T01:49:34.557Z,102120.84
2018-05-07T01:52:02.192Z,102118.72
2018-05-07T01:54:29.708Z,102121.62
2018-05-07T01:56:57.216Z,102130.31
2018-05-07T01:59:24.757Z,102120.60
2018-05-07T02:01:52.284Z,102120.23
2018-05-07T02:04:19.885Z,102122.16
2018-05-07T02:06:47.440Z,102122.76
2018-05-07T02:09:15.010Z,102122.48
2018-05-07T02:11:42.557Z,102129.26
2018-05-07T02:14:10.124Z,102126.76
2018-05-07T02:16:38.508Z,102125.91
2018-05-07T02:19:06.036Z,102125.60
2018-05-07T02:21:33.560Z,102122.16
2018-05-07T02:24:01.086Z,102122.19
2018-05-07T02:26:28.601Z,102115.08
2018-05-07T02:28:56.130Z,102116.11
2018-05-07T02:31:23.786Z,102116.11
2018-05-07T02:33:51.309Z,102116.20
2018-05-07T02:36:18.844Z,102114.55
2018-05-07T02:38:46.413Z,102116.40
2018-05-07T02:41:13.938Z,102115.11
2018-05-07T02:43:41.465Z,102118.78
2018-05-07T02:46:09.126Z,102121.13
2018-05-07T02:48:36.662Z,102116.30
2018-05-07T02:51:04.197Z,102121.26
2018-05-07T02:53:31.810Z,102118.16
2018-05-07T02:55:59.332Z,102111.04
2018-05-07T02:58:26.852Z,102117.43
2018-05-07T03:00:54.485Z,102118.99
2018-05-07T03:03:22.014Z,102110.44
2018-05-07T03:05:49.605Z,102103.58
2018-05-07T03:08:17.150Z,102116.23
2018-05-07T03:10:44.676Z,102110.84
2018-05-07T03:13:12.204Z,102105.05
2018-05-07T03:15:39.721Z,102108.72
2018-05-07T03:18:07.246Z,102113.26
2018-05-07T03:20:34.761Z,102108.34
2018-05-07T03:23:02.320Z,102103.04
2018-05-07T03:25:29.847Z,102107.11
2018-05-07T03:27:57.436Z,102105.36
2018-05-07T03:30:24.970Z,102101.84
2018-05-07T03:32:52.492Z,102101.44
2018-05-07T03:35:20.015Z,102109.14
2018-05-07T03:37:47.544Z,102104.63
2018-05-07T03:40:15.103Z,102107.67
2018-05-07T03:42:42.693Z,102108.58
2018-05-07T03:45:10.211Z,102100.05
2018-05-07T03:47:37.728Z,102097.83
2018-05-07T03:50:05.276Z,102096.95
2018-05-07T03:52:32.791Z,102104.19
2018-05-07T03:55:00.355Z,102102.84
2018-05-07T03:57:27.911Z,102105.07
2018-05-07T03:59:55.516Z,102091.25
2018-05-07T04:02:23.076Z,102088.97
2018-05-07T04:04:50.601Z,102087.99
2018-05-07T04:07:18.200Z,102085.33
2018-05-07T04:09:45.725Z,102085.83
2018-05-07T04:12:13.260Z,102087.17
2018-05-07T04:14:40.800Z,102087.93
2018-05-07T04:17:20.417Z,102084.42
2018-05-07T04:19:59.972Z,102080.73
2018-05-07T04:22:39.438Z,102081.10
2018-05-07T04:25:07.044Z,102080.04
2018-05-07T04:27:34.621Z,102074.52
2018-05-07T04:30:02.139Z,102077.97
2018-05-07T04:32:29.739Z,102080.10
2018-05-07T04:34:57.269Z,102075.02
2018-05-07T04:37:24.783Z,102079.66
2018-05-07T04:39:52.316Z,102080.44
2018-05-07T04:42:19.837Z,102086.80
2018-05-07T04:44:47.407Z,102086.14
2018-05-07T04:47:14.932Z,102077.80
2018-05-07T04:49:42.456Z,102078.30
2018-05-07T04:52:09.980Z,102083.84
2018-05-07T04:54:37.499Z,102084.45
2018-05-07T04:57:05.134Z,102081.41
2018-05-07T04:59:32.694Z,102086.03
2018-05-07T05:02:00.217Z,102082.11
2018-05-07T05:04:27.810Z,102085.77
2018-05-07T05:06:55.471Z,102093.14
2018-05-07T05:09:23.039Z,102087.83
2018-05-07T05:11:50.565Z,102092.47
2018-05-07T05:14:18.156Z,102085.83
2018-05-07T05:16:45.719Z,102086.77
2018-05-07T05:19:13.251Z,102087.39
2018-05-07T05:21:40.804Z,102082.48
2018-05-07T05:24:08.325Z,102083.34
2018-05-07T05:26:35.858Z,102078.98
2018-05-07T05:29:03.416Z,102076.69
2018-05-07T05:31:30.975Z,102077.99
2018-05-07T05:33:58.496Z,102077.48
2018-05-07T05:36:26.095Z,102070.15
2018-05-07T05:38:53.620Z,102077.90
2018-05-07T05:41:21.214Z,102078.42
2018-05-07T05:43:48.796Z,102075.36
2018-05-07T05:46:16.419Z,102084.19
2018-05-07T05:48:43.934Z,102081.66
2018-05-07T05:51:11.457Z,102089.12
2018-05-07T05:53:38.981Z,102080.23
2018-05-07T05:56:06.518Z,102081.11
2018-05-07T05:58:34.142Z,102081.77
2018-05-07T06:01:01.661Z,102083.00
2018-05-07T06:03:29.195Z,102088.80
2018-05-07T06:05:56.718Z,102083.69
2018-05-07T06:08:24.238Z,102079.17
2018-05-07T06:10:51.764Z,102076.07
2018-05-07T06:13:19.396Z,102075.58
2018-05-07T06:15:46.952Z,102081.48
2018-05-07T06:18:14.484Z,102079.23
2018-05-07T06:20:42.080Z,102084.80
2018-05-07T06:23:09.633Z,102079.59
2018-05-07T06:25:37.189Z,102078.18
2018-05-07T06:28:04.721Z,102069.34
2018-05-07T06:30:32.294Z,102074.07
2018-05-07T06:32:59.815Z,102075.88
2018-05-07T06:35:27.368Z,102075.00
2018-05-07T06:37:54.928Z,102068.49
2018-05-07T06:40:22.484Z,102070.94
2018-05-07T06:42:50.011Z,102071.03
2018-05-07T06:45:17.579Z,102075.70
2018-05-07T06:47:45.117Z,102065.27
2018-05-07T06:50:12.687Z,102065.16
2018-05-07T06:52:40.215Z,102069.03
2018-05-07T06:55:07.751Z,102059.66
2018-05-07T06:57:35.284Z,102062.38
2018-05-07T07:00:02.931Z,102053.02
2018-05-07T07:02:30.496Z,102048.13
2018-05-07T07:04:58.005Z,102049.91
2018-05-07T07:07:25.578Z,102056.30
2018-05-07T07:09:53.105Z,102049.48
2018-05-07T07:12:20.632Z,102047.02
2018-05-07T07:14:48.156Z,102046.61
2018-05-07T07:17:15.751Z,102048.69
2018-05-07T07:19:43.275Z,102052.25
2018-05-07T07:22:10.799Z,102048.07
2018-05-07T07:24:38.427Z,102040.02
2018-05-07T07:27:05.944Z,102042.27
2018-05-07T07:29:33.468Z,102044.50
2018-05-07T07:32:00.986Z,102029.47
2018-05-07T07:34:28.504Z,102037.91
2018-05-07T07:36:56.063Z,102038.34
2018-05-07T07:39:23.698Z,102029.28
2018-05-07T07:41:51.218Z,102031.27
2018-05-07T07:44:18.762Z,102036.99
2018-05-07T07:46:46.303Z,102029.81
2018-05-07T07:49:13.812Z,102025.48
2018-05-07T07:51:41.377Z,102037.25
2018-05-07T07:54:08.921Z,102032.26
2018-05-07T07:56:36.441Z,102033.99
2018-05-07T07:59:04.065Z,102034.08
2018-05-07T08:01:31.589Z,102028.88
2018-05-07T08:03:59.176Z,102030.63
2018-05-07T08:06:26.700Z,102020.67
2018-05-07T08:08:54.236Z,102018.94
2018-05-07T08:11:21.864Z,102018.22
2018-05-07T08:13:49.390Z,102021.28
2018-05-07T08:16:16.957Z,102026.91
2018-05-07T08:18:44.528Z,102018.73
2018-05-07T08:21:12.039Z,102019.20
2018-05-07T08:23:39.667Z,102016.69
2018-05-07T08:26:07.221Z,102013.84
2018-05-07T08:28:34.739Z,102009.45
2018-05-07T08:31:02.307Z,102007.86
2018-05-07T08:33:29.910Z,102004.38
2018-05-07T08:35:57.471Z,101998.63
2018-05-07T08:38:24.992Z,101996.60
2018-05-07T08:40:52.557Z,101992.27
2018-05-07T08:43:20.072Z,101990.67
2018-05-07T08:45:47.704Z,101984.27
2018-05-07T08:48:15.272Z,101976.63
2018-05-07T08:50:42.835Z,101986.36
2018-05-07T08:53:10.360Z,101977.97
2018-05-07T08:55:37.877Z,101980.54
2018-05-07T08:58:05.401Z,101982.33
2018-05-07T09:00:32.928Z,101983.16
2018-05-07T09:03:00.456Z,101972.70
2018-05-07T09:05:27.982Z,101976.51
2018-05-07T09:07:55.613Z,101972.89
2018-05-07T09:10:23.084Z,101971.08
2018-05-07T09:12:50.660Z,101962.73
2018-05-07T09:15:18.188Z,101970.42
2018-05-07T09:17:45.708Z,101970.51
2018-05-07T09:20:13.249Z,101973.66
2018-05-07T09:22:40.772Z,101961.72
2018-05-07T09:25:08.296Z,101959.72
2018-05-07T09:27:35.818Z,101952.28
2018-05-07T09:30:03.330Z,101949.06
2018-05-07T09:32:30.858Z,101948.46
2018-05-07T09:34:58.376Z,101945.69
2018-05-07T09:37:25.910Z,101946.19
2018-05-07T09:39:53.616Z,101944.42
2018-05-07T09:42:21.141Z,101948.73
2018-05-07T09:44:48.729Z,101945.33
2018-05-07T09:47:16.284Z,101940.80
2018-05-07T09:49:43.850Z,101931.98
2018-05-07T09:52:11.519Z,101934.91
2018-05-07T09:54:39.066Z,101938.59
2018-05-07T09:57:06.757Z,101922.13
2018-05-07T09:59:34.284Z,101931.20
2018-05-07T10:02:01.860Z,101934.27
2018-05-07T10:04:29.375Z,101928.00
2018-05-07T10:06:56.981Z,101918.34
2018-05-07T10:09:24.539Z,101920.11
2018-05-07T10:11:52.065Z,101917.80
2018-05-07T10:14:19.589Z,101918.39
2018-05-07T10:16:47.115Z,101920.08
2018-05-07T10:19:14.676Z,101914.09
2018-05-07T10:21:42.195Z,101925.13
2018-05-07T10:24:09.834Z,101914.58
2018-05-07T10:26:37.339Z,101902.20
2018-05-07T10:29:04.922Z,101906.23
2018-05-07T10:31:32.501Z,101902.66
2018-05-07T10:34:00.134Z,101903.09
2018-05-07T10:36:27.664Z,101899.55
2018-05-07T10:38:55.272Z,101897.92
2018-05-07T10:41:22.793Z,101903.93
2018-05-07T10:43:50.372Z,101898.09
2018-05-07T10:46:17.939Z,101896.27
2018-05-07T10:48:45.473Z,101897.58
2018-05-07T10:51:12.987Z,101894.94
2018-05-07T10:53:40.620Z,101893.22
2018-05-07T10:56:08.134Z,101897.84
2018-05-07T10:58:35.739Z,101893.45
2018-05-07T11:01:03.302Z,101894.24
2018-05-07T11:03:30.823Z,101893.20
2018-05-07T11:05:58.380Z,101887.63
2018-05-07T11:08:25.974Z,101894.69
2018-05-07T11:10:53.497Z,101883.97
2018-05-07T11:13:21.096Z,101883.09
2018-05-07T11:15:48.621Z,101878.88
2018-05-07T11:18:16.144Z,101879.12
2018-05-07T11:20:43.781Z,101879.91
2018-05-07T11:23:11.304Z,101875.94
2018-05-07T11:25:38.836Z,101877.25
2018-05-07T11:28:06.349Z,101871.84
2018-05-07T11:30:33.867Z,101873.22
2018-05-07T11:33:01.403Z,101873.78
2018-05-07T11:35:28.951Z,101869.83
2018-05-07T11:37:56.475Z,101873.70
2018-05-07T11:40:24.044Z,101865.03
2018-05-07T11:42:51.568Z,101867.86
2018-05-07T11:45:19.110Z,101857.98
2018-05-07T11:47:46.675Z,101848.38
2018-05-07T11:50:14.164Z,101848.91
2018-05-07T11:52:41.693Z,101851.38
2018-05-07T11:55:09.211Z,101847.36
2018-05-07T11:57:36.737Z,101842.53
2018-05-07T12:00:04.329Z,101842.39
2018-05-07T12:02:31.939Z,101846.71
2018-05-07T12:04:59.399Z,101835.66
2018-05-07T12:07:26.996Z,101835.38
2018-05-07T12:09:54.532Z,101841.62
2018-05-07T12:12:22.058Z,101834.02
2018-05-07T12:14:49.590Z,101829.02
2018-05-07T12:17:17.153Z,101841.22
2018-05-07T12:19:44.665Z,101816.56
2018-05-07T12:22:12.219Z,101829.18
2018-05-07T12:24:39.759Z,101824.45
2018-05-07T12:27:07.291Z,101823.47
2018-05-07T12:29:34.810Z,101819.28
2018-05-07T12:32:02.393Z,101824.84
2018-05-07T12:34:29.923Z,101816.52
2018-05-07T12:36:57.435Z,101807.74
2018-05-07T12:39:24.943Z,101797.50
2018-05-07T12:41:52.543Z,101799.25
2018-05-07T12:44:20.069Z,101805.44
2018-05-07T12:46:47.679Z,101803.40
2018-05-07T12:49:15.213Z,101795.45
2018-05-07T12:51:42.735Z,101784.73
2018-05-07T12:54:10.282Z,101786.15
2018-05-07T12:56:37.800Z,101784.30
2018-05-07T12:59:05.326Z,101778.95
2018-05-07T13:01:32.860Z,101773.77
2018-05-07T13:04:00.480Z,101782.03
2018-05-07T13:06:28.001Z,101769.91
2018-05-07T13:08:55.600Z,101768.39
2018-05-07T13:11:23.188Z,101762.52
2018-05-07T13:13:50.792Z,101766.06
2018-05-07T13:16:18.309Z,101760.36
2018-05-07T13:18:45.943Z,101753.90
2018-05-07T13:21:13.484Z,101752.64
2018-05-07T13:23:41.012Z,101739.36
2018-05-07T13:26:08.538Z,101740.66
2018-05-07T13:28:36.167Z,101740.80
2018-05-07T13:31:03.681Z,101746.86
2018-05-07T13:33:31.206Z,101750.62
2018-05-07T13:35:58.724Z,101735.14
2018-05-07T13:38:26.316Z,101734.87
2018-05-07T13:40:53.843Z,101729.50
2018-05-07T13:43:21.456Z,101730.05
2018-05-07T13:45:48.973Z,101721.28
2018-05-07T13:48:16.488Z,101719.30
2018-05-07T13:50:44.020Z,101722.07
2018-05-07T13:53:11.574Z,101714.70
2018-05-07T13:55:39.104Z,101714.34
2018-05-07T13:58:06.627Z,101711.53
2018-05-07T14:00:34.156Z,101711.79
2018-05-07T14:03:01.736Z,101709.62
2018-05-07T14:05:29.276Z,101713.62
2018-05-07T14:07:56.802Z,101711.46
2018-05-07T14:10:24.399Z,101707.86
2018-05-07T14:12:51.921Z,101704.61
2018-05-07T14:15:19.465Z,101699.45
2018-05-07T14:17:46.986Z,101703.56
2018-05-07T14:20:14.511Z,101700.13
2018-05-07T14:22:42.026Z,101697.79
2018-05-07T14:25:09.546Z,101682.09
2018-05-07T14:27:37.066Z,101696.20
2018-05-07T14:30:04.635Z,101688.05
2018-05-07T14:32:32.151Z,101684.51
2018-05-07T14:34:59.689Z,101680.80
2018-05-07T14:37:27.247Z,101679.25
2018-05-07T14:39:54.790Z,101673.22
2018-05-07T14:42:22.324Z,101666.86
2018-05-07T14:44:49.849Z,101673.72
2018-05-07T14:47:17.374Z,101662.75
2018-05-07T14:49:44.903Z,101660.80
2018-05-07T14:52:12.444Z,101661.71
2018-05-07T14:54:40.063Z,101656.72
2018-05-07T14:57:07.633Z,101658.30
2018-05-07T14:59:35.158Z,101665.56
2018-05-07T15:02:02.745Z,101655.36
2018-05-07T15:04:30.275Z,101650.41
2018-05-07T15:06:57.790Z,101650.91
2018-05-07T15:09:25.319Z,101650.98
2018-05-07T15:11:52.884Z,101647.23
2018-05-07T15:14:24.239Z,101642.66
2018-05-07T15:16:51.763Z,101643.16
2018-05-07T15:19:19.284Z,101633.28
2018-05-07T15:21:46.810Z,101638.94
2018-05-07T15:24:14.369Z,101636.48
2018-05-07T15:26:41.892Z,101636.99
2018-05-07T15:29:09.509Z,101636.41
2018-05-07T15:31:36.981Z,101633.78
2018-05-07T15:34:04.568Z,101625.38
2018-05-07T15:36:32.122Z,101630.72
2018-05-07T15:39:00.006Z,101621.95
2018-05-07T15:41:27.527Z,101626.39
2018-05-07T15:43:55.054Z,101626.58
2018-05-07T15:46:22.582Z,101623.01
2018-05-07T15:48:50.132Z,101624.06
2018-05-07T15:51:17.672Z,101627.78
2018-05-07T15:53:45.355Z,101624.34
2018-05-07T15:56:12.922Z,101613.59
2018-05-07T15:58:40.444Z,101615.18
2018-05-07T16:01:07.975Z,101611.61
2018-05-07T16:03:35.491Z,101616.41
2018-05-07T16:06:03.079Z,101611.00
2018-05-07T16:08:30.598Z,101616.66
2018-05-07T16:10:58.123Z,101615.52
2018-05-07T16:13:25.786Z,101612.16
2018-05-07T16:15:53.320Z,101609.53
2018-05-07T16:18:20.866Z,101604.55
2018-05-07T16:20:48.454Z,101608.73
2018-05-07T16:23:16.232Z,101603.47
2018-05-07T16:25:43.671Z,101605.92
2018-05-07T16:28:11.174Z,101605.34
2018-05-07T16:30:38.697Z,101608.02
2018-05-07T16:33:06.245Z,101602.36
2018-05-07T16:35:33.819Z,101597.52
2018-05-07T16:38:01.347Z,101596.08
2018-05-07T16:40:28.861Z,101594.67
2018-05-07T16:42:56.391Z,101595.22
2018-05-07T16:45:23.907Z,101591.54
2018-05-07T16:47:51.525Z,101587.72
2018-05-07T16:50:19.087Z,101591.47
2018-05-07T16:52:46.763Z,101592.87
2018-05-07T16:55:14.307Z,101587.53
2018-05-07T16:57:41.920Z,101592.30
2018-05-07T17:00:09.440Z,101585.33
2018-05-07T17:02:36.983Z,101580.17
2018-05-07T17:05:04.529Z,101579.35
2018-05-07T17:07:32.090Z,101584.08
2018-05-07T17:09:59.635Z,101572.69
2018-05-07T17:12:27.215Z,101571.06
2018-05-07T17:14:54.769Z,101571.17
2018-05-07T17:17:22.329Z,101561.18
2018-05-07T17:19:49.880Z,101566.37
2018-05-07T17:22:17.396Z,101571.38
2018-05-07T17:24:44.978Z,101581.36
2018-05-07T17:27:12.496Z,101575.41
2018-05-07T17:29:40.118Z,101577.47
2018-05-07T17:32:07.761Z,101577.75
2018-05-07T17:34:35.353Z,101577.31
2018-05-07T17:37:02.867Z,101575.98
2018-05-07T17:39:30.613Z,101570.86
2018-05-07T17:41:58.124Z,101572.55
2018-05-07T17:44:37.399Z,101577.59
2018-05-07T17:47:16.833Z,101583.16
2018-05-07T17:49:44.459Z,101580.23
2018-05-07T17:52:11.968Z,101577.31
2018-05-07T17:54:39.501Z,101575.83
2018-05-07T17:57:07.150Z,101575.64
2018-05-07T17:59:34.668Z,101578.95
2018-05-07T18:02:02.204Z,101580.27
2018-05-07T18:04:29.799Z,101571.16
2018-05-07T18:06:57.393Z,101567.00
2018-05-07T18:09:24.954Z,101572.18
2018-05-07T18:11:52.481Z,101565.70
2018-05-07T18:14:20.000Z,101570.75
2018-05-07T18:16:47.531Z,101563.59
2018-05-07T18:19:15.127Z,101562.62
2018-05-07T18:21:42.675Z,101560.75
2018-05-07T18:24:10.197Z,101560.62
2018-05-07T18:26:37.734Z,101561.03
2018-05-07T18:29:05.253Z,101565.78
2018-05-07T18:31:32.772Z,101571.63
2018-05-07T18:34:00.302Z,101563.00
2018-05-07T18:36:27.819Z,101561.06
2018-05-07T18:38:55.452Z,101563.17
2018-05-07T18:41:22.964Z,101565.72
2018-05-07T18:43:50.547Z,101572.69
2018-05-07T18:46:18.067Z,101570.73
2018-05-07T18:48:45.693Z,101574.09
2018-05-07T18:51:13.268Z,101574.79
2018-05-07T18:53:40.791Z,101571.16
2018-05-07T18:56:08.317Z,101570.59
2018-05-07T18:58:35.947Z,101568.66
2018-05-07T19:01:03.474Z,101562.36
2018-05-07T19:03:31.007Z,101559.20
2018-05-07T19:05:58.527Z,101563.53
2018-05-07T19:08:26.082Z,101559.92
2018-05-07T19:10:53.599Z,101564.69
2018-05-07T19:13:21.138Z,101562.25
2018-05-07T19:15:48.647Z,101565.84
2018-05-07T19:18:16.221Z,101564.73
2018-05-07T19:20:43.749Z,101573.75
2018-05-07T19:23:11.273Z,101566.48
2018-05-07T19:25:38.808Z,101568.20
2018-05-07T19:28:06.362Z,101570.02
2018-05-07T19:30:33.879Z,101569.23
2018-05-07T19:33:01.448Z,101568.94
2018-05-07T19:35:29.041Z,101569.37
2018-05-07T19:37:56.616Z,101568.44
2018-05-07T19:40:24.231Z,101568.01
2018-05-07T19:42:51.752Z,101571.44
2018-05-07T19:45:19.276Z,101570.79
2018-05-07T19:47:46.809Z,101573.49
2018-05-07T19:50:14.333Z,101567.30
2018-05-07T19:52:41.855Z,101566.19
2018-05-07T19:55:09.385Z,101563.83
2018-05-07T19:57:36.912Z,101560.95
2018-05-07T20:00:04.506Z,101560.86
2018-05-07T20:02:32.092Z,101555.37
2018-05-07T20:04:59.611Z,101561.53
2018-05-07T20:07:27.150Z,101564.48
2018-05-07T20:09:54.704Z,101569.52
2018-05-07T20:12:22.277Z,101568.16
2018-05-07T20:14:49.790Z,101560.38
2018-05-07T20:17:17.307Z,101557.73
2018-05-07T20:19:44.823Z,101549.31
2018-05-07T20:22:12.337Z,101552.31
2018-05-07T20:24:39.898Z,101548.92
2018-05-07T20:27:07.420Z,101546.97
2018-05-07T20:29:34.950Z,101552.26
2018-05-07T20:32:02.464Z,101541.69
2018-05-07T20:34:29.988Z,101548.03
2018-05-07T20:36:57.508Z,101544.63
2018-05-07T20:39:25.045Z,101549.23
2018-05-07T20:41:52.631Z,101552.34
2018-05-07T20:44:20.264Z,101548.62
2018-05-07T20:46:47.824Z,101555.42
2018-05-07T20:49:15.432Z,101548.10
2018-05-07T20:51:42.975Z,101553.06
2018-05-07T20:54:10.684Z,101552.43
2018-05-07T20:56:38.212Z,101551.53
2018-05-07T20:59:05.729Z,101546.70
2018-05-07T21:01:33.260Z,101546.81
2018-05-07T21:04:00.777Z,101547.52
2018-05-07T21:06:28.318Z,101550.01
2018-05-07T21:08:55.910Z,101542.91
2018-05-07T21:11:23.438Z,101546.73
2018-05-07T21:13:51.132Z,101547.81
2018-05-07T21:16:18.656Z,101546.83
2018-05-07T21:18:46.254Z,101542.78
2018-05-07T21:21:13.827Z,101537.86
2018-05-07T21:23:42.291Z,101540.88
2018-05-07T21:26:09.805Z,101531.75
2018-05-07T21:28:37.405Z,101535.98
2018-05-07T21:31:05.058Z,101539.02
2018-05-07T21:33:32.568Z,101539.27
2018-05-07T21:36:00.093Z,101541.82
2018-05-07T21:38:27.617Z,101540.95
2018-05-07T21:40:55.141Z,101537.01
2018-05-07T21:43:22.710Z,101540.34
2018-05-07T21:45:50.334Z,101548.20
2018-05-07T21:48:17.865Z,101549.01
2018-05-07T21:50:45.420Z,101548.25
2018-05-07T21:53:13.012Z,101551.11
2018-05-07T21:55:41.149Z,101553.62
2018-05-07T21:58:08.749Z,101553.33
2018-05-07T22:00:36.270Z,101546.34
2018-05-07T22:03:03.838Z,101559.94
2018-05-07T22:05:31.425Z,101555.98
2018-05-07T22:07:58.958Z,101559.33
2018-05-07T22:10:26.530Z,101556.25
2018-05-07T22:12:54.039Z,101555.69
2018-05-07T22:15:21.564Z,101545.44
2018-05-07T22:17:49.093Z,101547.34
2018-05-07T22:20:16.608Z,101543.44
2018-05-07T22:22:44.123Z,101542.33
2018-05-07T22:25:11.715Z,101539.36
2018-05-07T22:27:39.265Z,101542.39
2018-05-07T22:30:06.789Z,101535.67
2018-05-07T22:32:34.323Z,101539.92
2018-05-07T22:35:01.932Z,101541.22
2018-05-07T22:37:29.451Z,101539.97
2018-05-07T22:39:57.043Z,101535.97
2018-05-07T22:42:24.555Z,101544.43
2018-05-07T22:44:52.235Z,101541.16
2018-05-07T22:47:19.777Z,101543.23
2018-05-07T22:49:47.308Z,101538.23
2018-05-07T22:52:14.914Z,101540.22
2018-05-07T22:54:42.388Z,101537.86
2018-05-07T22:57:09.914Z,101534.51
2018-05-07T22:59:37.475Z,101538.34
2018-05-07T23:02:05.005Z,101537.27
2018-05-07T23:04:32.523Z,101540.69
2018-05-07T23:07:00.172Z,101539.00
2018-05-07T23:09:27.840Z,101536.86
2018-05-07T23:11:55.355Z,101533.58
2018-05-07T23:14:22.898Z,101526.65
2018-05-07T23:16:50.429Z,101527.87
2018-05-07T23:19:17.948Z,101525.08
2018-05-07T23:21:45.569Z,101526.00
2018-05-07T23:24:13.100Z,101528.52
2018-05-07T23:26:40.628Z,101534.80
2018-05-07T23:29:08.189Z,101531.27
2018-05-07T23:31:35.727Z,101524.72
2018-05-07T23:34:03.253Z,101524.47
2018-05-07T23:36:30.787Z,101521.05
2018-05-07T23:38:58.308Z,101519.92
2018-05-07T23:41:25.829Z,101522.38
2018-05-07T23:43:53.343Z,101520.52
2018-05-07T23:46:20.873Z,101523.50
2018-05-07T23:48:48.401Z,101522.92
2018-05-07T23:51:15.921Z,101526.35
2018-05-07T23:53:43.451Z,101517.95
2018-05-07T23:56:10.969Z,101518.92
2018-05-07T23:58:38.559Z,101521.06
